sensor_id;sensor_type;location;lat;lon;timestamp;pressure;altitude;pressure_sealevel;temperature;humidity
78745;BME280;68064;53.100;8.824;2023-08-21T00:00:38;102360.97;;;17.48;65.09
78745;BME280;68064;53.100;8.824;2023-08-21T00:01:39;102357.47;;;17.46;65.19
78745;BME280;68064;53.100;8.824;2023-08-21T00:02:42;102359.16;;;17.46;65.56
78745;BME280;68064;53.100;8.824;2023-08-21T00:03:43;102357.47;;;17.46;65.13
78745;BME280;68064;53.100;8.824;2023-08-21T00:04:44;102362.59;;;17.45;65.48
78745;BME280;68064;53.100;8.824;2023-08-21T00:05:45;102359.13;;;17.44;65.39
78745;BME280;68064;53.100;8.824;2023-08-21T00:06:46;102364.34;;;17.46;65.54
78745;BME280;68064;53.100;8.824;2023-08-21T00:07:47;102365.19;;;17.45;65.45
78745;BME280;68064;53.100;8.824;2023-08-21T00:08:48;102365.91;;;17.42;65.09
78745;BME280;68064;53.100;8.824;2023-08-21T00:09:49;102358.13;;;17.41;65.13
78745;BME280;68064;53.100;8.824;2023-08-21T00:10:50;102364.09;;;17.40;65.19
78745;BME280;68064;53.100;8.824;2023-08-21T00:11:51;102364.88;;;17.37;65.25
78745;BME280;68064;53.100;8.824;2023-08-21T00:12:52;102365.69;;;17.36;65.44
78745;BME280;68064;53.100;8.824;2023-08-21T00:13:53;102368.28;;;17.36;65.59
78745;BME280;68064;53.100;8.824;2023-08-21T00:14:54;102363.06;;;17.35;65.53
78745;BME280;68064;53.100;8.824;2023-08-21T00:15:55;102370.75;;;17.33;65.49
78745;BME280;68064;53.100;8.824;2023-08-21T00:16:56;102365.53;;;17.32;65.57
78745;BME280;68064;53.100;8.824;2023-08-21T00:17:59;102370.63;;;17.30;65.55
78745;BME280;68064;53.100;8.824;2023-08-21T00:19:00;102370.56;;;17.29;65.57
78745;BME280;68064;53.100;8.824;2023-08-21T00:20:01;102375.69;;;17.27;65.72
78745;BME280;68064;53.100;8.824;2023-08-21T00:21:02;102375.63;;;17.26;65.63
78745;BME280;68064;53.100;8.824;2023-08-21T00:22:03;102367.75;;;17.23;65.25
78745;BME280;68064;53.100;8.824;2023-08-21T00:23:04;102369.38;;;17.21;65.60
78745;BME280;68064;53.100;8.824;2023-08-21T00:24:05;102375.44;;;17.21;65.68
78745;BME280;68064;53.100;8.824;2023-08-21T00:25:07;102377.09;;;17.19;65.37
78745;BME280;68064;53.100;8.824;2023-08-21T00:26:08;102374.41;;;17.18;65.88
78745;BME280;68064;53.100;8.824;2023-08-21T00:27:09;102370.91;;;17.16;65.67
78745;BME280;68064;53.100;8.824;2023-08-21T00:28:10;102368.22;;;17.14;65.63
78745;BME280;68064;53.100;8.824;2023-08-21T00:29:11;102373.25;;;17.10;65.64
78745;BME280;68064;53.100;8.824;2023-08-21T00:30:12;102374.81;;;17.06;66.04
78745;BME280;68064;53.100;8.824;2023-08-21T00:31:13;102372.22;;;17.06;65.97
78745;BME280;68064;53.100;8.824;2023-08-21T00:32:14;102369.63;;;17.06;65.92
78745;BME280;68064;53.100;8.824;2023-08-21T00:33:17;102369.56;;;17.05;66.09
78745;BME280;68064;53.100;8.824;2023-08-21T00:34:18;102366.16;;;17.06;65.99
78745;BME280;68064;53.100;8.824;2023-08-21T00:35:19;102367.88;;;17.05;65.90
78745;BME280;68064;53.100;8.824;2023-08-21T00:36:20;102368.66;;;17.04;66.01
78745;BME280;68064;53.100;8.824;2023-08-21T00:37:21;102363.44;;;17.03;65.86
78745;BME280;68064;53.100;8.824;2023-08-21T00:38:22;102363.38;;;17.01;65.70
78745;BME280;68064;53.100;8.824;2023-08-21T00:39:23;102364.91;;;16.96;65.77
78745;BME280;68064;53.100;8.824;2023-08-21T00:40:24;102365.59;;;16.92;65.89
78745;BME280;68064;53.100;8.824;2023-08-21T00:41:25;102363.00;;;16.92;66.01
78745;BME280;68064;53.100;8.824;2023-08-21T00:42:27;102358.78;;;16.94;66.07
78745;BME280;68064;53.100;8.824;2023-08-21T00:43:28;102365.78;;;16.97;66.21
78745;BME280;68064;53.100;8.824;2023-08-21T00:44:29;102356.34;;;16.97;66.19
78745;BME280;68064;53.100;8.824;2023-08-21T00:45:31;102357.19;;;16.98;66.25
78745;BME280;68064;53.100;8.824;2023-08-21T00:46:32;102368.38;;;16.97;66.25
78745;BME280;68064;53.100;8.824;2023-08-21T00:47:33;102362.06;;;16.90;65.94
78745;BME280;68064;53.100;8.824;2023-08-21T00:48:35;102366.84;;;16.81;65.97
78745;BME280;68064;53.100;8.824;2023-08-21T00:49:37;102363.00;;;16.71;69.47
78745;BME280;68064;53.100;8.824;2023-08-21T00:50:38;102360.41;;;16.71;66.93
78745;BME280;68064;53.100;8.824;2023-08-21T00:51:39;102360.59;;;16.76;67.05
78745;BME280;68064;53.100;8.824;2023-08-21T00:52:43;102361.59;;;16.79;66.52
78745;BME280;68064;53.100;8.824;2023-08-21T00:53:45;102362.50;;;16.80;66.75
78745;BME280;68064;53.100;8.824;2023-08-21T00:54:46;102358.13;;;16.79;66.63
78745;BME280;68064;53.100;8.824;2023-08-21T00:55:47;102364.81;;;16.74;66.32
78745;BME280;68064;53.100;8.824;2023-08-21T00:56:48;102363.88;;;16.72;66.23
78745;BME280;68064;53.100;8.824;2023-08-21T00:57:49;102359.56;;;16.72;66.34
78745;BME280;68064;53.100;8.824;2023-08-21T00:58:50;102362.13;;;16.71;66.36
78745;BME280;68064;53.100;8.824;2023-08-21T00:59:51;102357.00;;;16.72;66.60
78745;BME280;68064;53.100;8.824;2023-08-21T01:00:53;102352.78;;;16.74;66.60
78745;BME280;68064;53.100;8.824;2023-08-21T01:01:54;102355.41;;;16.76;66.76
78745;BME280;68064;53.100;8.824;2023-08-21T01:02:56;102358.00;;;16.76;66.56
78745;BME280;68064;53.100;8.824;2023-08-21T01:03:59;102357.13;;;16.75;66.78
78745;BME280;68064;53.100;8.824;2023-08-21T01:05:00;102366.47;;;16.72;66.56
78745;BME280;68064;53.100;8.824;2023-08-21T01:06:01;102372.19;;;16.65;66.31
78745;BME280;68064;53.100;8.824;2023-08-21T01:07:02;102371.94;;;16.59;67.13
78745;BME280;68064;53.100;8.824;2023-08-21T01:08:06;102366.81;;;16.60;66.63
78745;BME280;68064;53.100;8.824;2023-08-21T01:09:16;102372.06;;;16.62;66.64
78745;BME280;68064;53.100;8.824;2023-08-21T01:10:24;102367.91;;;16.65;66.81
78745;BME280;68064;53.100;8.824;2023-08-21T01:11:33;102370.50;;;16.65;66.71
78745;BME280;68064;53.100;8.824;2023-08-21T01:12:50;102358.44;;;16.66;66.84
78745;BME280;68064;53.100;8.824;2023-08-21T01:14:00;102370.41;;;16.64;66.74
78745;BME280;68064;53.100;8.824;2023-08-21T01:15:06;102369.47;;;16.62;66.67
78745;BME280;68064;53.100;8.824;2023-08-21T01:16:07;102365.88;;;16.58;66.41
78745;BME280;68064;53.100;8.824;2023-08-21T01:17:11;102368.34;;;16.55;66.54
78745;BME280;68064;53.100;8.824;2023-08-21T01:18:14;102367.44;;;16.55;66.86
78745;BME280;68064;53.100;8.824;2023-08-21T01:19:25;102363.81;;;16.51;66.68
78745;BME280;68064;53.100;8.824;2023-08-21T01:20:27;102375.94;;;16.52;66.90
78745;BME280;68064;53.100;8.824;2023-08-21T01:21:28;102365.63;;;16.54;66.83
78745;BME280;68064;53.100;8.824;2023-08-21T01:22:36;102371.69;;;16.54;66.93
78745;BME280;68064;53.100;8.824;2023-08-21T01:23:40;102367.44;;;16.55;66.68
78745;BME280;68064;53.100;8.824;2023-08-21T01:24:42;102359.56;;;16.53;66.90
78745;BME280;68064;53.100;8.824;2023-08-21T01:25:43;102359.69;;;16.55;66.80
78745;BME280;68064;53.100;8.824;2023-08-21T01:26:44;102360.59;;;16.55;66.78
78745;BME280;68064;53.100;8.824;2023-08-21T01:27:47;102360.63;;;16.57;66.83
78745;BME280;68064;53.100;8.824;2023-08-21T01:28:49;102361.47;;;16.56;66.75
78745;BME280;68064;53.100;8.824;2023-08-21T01:29:50;102357.09;;;16.55;66.86
78745;BME280;68064;53.100;8.824;2023-08-21T01:30:57;102356.13;;;16.53;66.60
78745;BME280;68064;53.100;8.824;2023-08-21T01:32:05;102360.34;;;16.51;66.72
78745;BME280;68064;53.100;8.824;2023-08-21T01:33:10;102357.63;;;16.48;66.88
78745;BME280;68064;53.100;8.824;2023-08-21T01:34:14;102365.03;;;16.40;70.63
78745;BME280;68064;53.100;8.824;2023-08-21T01:35:16;102374.16;;;16.32;68.92
78745;BME280;68064;53.100;8.824;2023-08-21T01:36:18;102371.66;;;16.33;67.87
78745;BME280;68064;53.100;8.824;2023-08-21T01:37:19;102373.50;;;16.36;67.51
78745;BME280;68064;53.100;8.824;2023-08-21T01:38:20;102370.06;;;16.37;67.43
78745;BME280;68064;53.100;8.824;2023-08-21T01:39:23;102371.03;;;16.39;67.30
78745;BME280;68064;53.100;8.824;2023-08-21T01:40:25;102364.97;;;16.38;67.24
78745;BME280;68064;53.100;8.824;2023-08-21T01:41:26;102369.13;;;16.35;67.03
78745;BME280;68064;53.100;8.824;2023-08-21T01:42:27;102370.69;;;16.31;66.90
78745;BME280;68064;53.100;8.824;2023-08-21T01:43:28;102372.38;;;16.31;66.90
78745;BME280;68064;53.100;8.824;2023-08-21T01:44:29;102373.34;;;16.33;66.89
78745;BME280;68064;53.100;8.824;2023-08-21T01:45:30;102370.81;;;16.34;67.13
78745;BME280;68064;53.100;8.824;2023-08-21T01:46:31;102370.81;;;16.34;66.88
78745;BME280;68064;53.100;8.824;2023-08-21T01:47:32;102374.28;;;16.35;67.05
78745;BME280;68064;53.100;8.824;2023-08-21T01:48:33;102378.56;;;16.34;67.06
78745;BME280;68064;53.100;8.824;2023-08-21T01:49:34;102373.34;;;16.33;66.92
78745;BME280;68064;53.100;8.824;2023-08-21T01:50:35;102375.84;;;16.31;66.90
78745;BME280;68064;53.100;8.824;2023-08-21T01:51:36;102371.44;;;16.29;66.91
78745;BME280;68064;53.100;8.824;2023-08-21T01:52:37;102370.50;;;16.27;66.70
78745;BME280;68064;53.100;8.824;2023-08-21T01:53:38;102376.47;;;16.26;66.94
78745;BME280;68064;53.100;8.824;2023-08-21T01:54:41;102374.69;;;16.25;67.06
78745;BME280;68064;53.100;8.824;2023-08-21T01:55:42;102375.59;;;16.25;67.17
78745;BME280;68064;53.100;8.824;2023-08-21T01:56:43;102373.81;;;16.24;66.72
78745;BME280;68064;53.100;8.824;2023-08-21T01:57:44;102372.13;;;16.25;66.99
78745;BME280;68064;53.100;8.824;2023-08-21T01:58:45;102371.22;;;16.24;66.89
78745;BME280;68064;53.100;8.824;2023-08-21T01:59:46;102377.16;;;16.22;66.98
78745;BME280;68064;53.100;8.824;2023-08-21T02:00:47;102373.69;;;16.21;66.90
78745;BME280;68064;53.100;8.824;2023-08-21T02:01:48;102370.06;;;16.18;66.73
78745;BME280;68064;53.100;8.824;2023-08-21T02:02:49;102375.06;;;16.13;66.65
78745;BME280;68064;53.100;8.824;2023-08-21T02:03:51;102372.38;;;16.12;67.03
78745;BME280;68064;53.100;8.824;2023-08-21T02:04:52;102378.38;;;16.11;66.98
78745;BME280;68064;53.100;8.824;2023-08-21T02:05:55;102378.31;;;16.09;67.07
78745;BME280;68064;53.100;8.824;2023-08-21T02:06:56;102379.19;;;16.10;67.04
78745;BME280;68064;53.100;8.824;2023-08-21T02:07:57;102374.09;;;16.11;67.30
78745;BME280;68064;53.100;8.824;2023-08-21T02:08:58;102376.75;;;16.13;67.35
78745;BME280;68064;53.100;8.824;2023-08-21T02:10:01;102376.75;;;16.13;67.23
78745;BME280;68064;53.100;8.824;2023-08-21T02:11:02;102376.69;;;16.11;66.96
78745;BME280;68064;53.100;8.824;2023-08-21T02:12:03;102374.09;;;16.11;67.04
78745;BME280;68064;53.100;8.824;2023-08-21T02:13:04;102373.13;;;16.09;67.01
78745;BME280;68064;53.100;8.824;2023-08-21T02:14:05;102375.59;;;16.06;67.22
78745;BME280;68064;53.100;8.824;2023-08-21T02:15:07;102379.66;;;16.01;67.00
78745;BME280;68064;53.100;8.824;2023-08-21T02:16:08;102379.66;;;16.01;67.19
78745;BME280;68064;53.100;8.824;2023-08-21T02:17:09;102374.50;;;16.01;67.23
78745;BME280;68064;53.100;8.824;2023-08-21T02:18:10;102373.66;;;16.02;67.14
78745;BME280;68064;53.100;8.824;2023-08-21T02:19:11;102379.72;;;16.03;67.16
78745;BME280;68064;53.100;8.824;2023-08-21T02:20:12;102377.97;;;16.02;67.38
78745;BME280;68064;53.100;8.824;2023-08-21T02:21:13;102378.84;;;16.02;67.28
78745;BME280;68064;53.100;8.824;2023-08-21T02:22:14;102379.59;;;16.00;67.23
78745;BME280;68064;53.100;8.824;2023-08-21T02:23:15;102379.44;;;15.97;67.05
78745;BME280;68064;53.100;8.824;2023-08-21T02:24:17;102371.56;;;15.94;67.19
78745;BME280;68064;53.100;8.824;2023-08-21T02:25:19;102381.84;;;15.92;66.91
78745;BME280;68064;53.100;8.824;2023-08-21T02:26:20;102382.63;;;15.91;67.33
78745;BME280;68064;53.100;8.824;2023-08-21T02:27:21;102380.06;;;15.91;67.35
78745;BME280;68064;53.100;8.824;2023-08-21T02:28:22;102383.44;;;15.90;67.44
78745;BME280;68064;53.100;8.824;2023-08-21T02:29:23;102384.25;;;15.89;67.27
78745;BME280;68064;53.100;8.824;2023-08-21T02:30:24;102387.72;;;15.89;67.43
78745;BME280;68064;53.100;8.824;2023-08-21T02:31:25;102380.81;;;15.88;67.42
78745;BME280;68064;53.100;8.824;2023-08-21T02:32:26;102381.63;;;15.87;67.38
78745;BME280;68064;53.100;8.824;2023-08-21T02:33:27;102382.41;;;15.86;67.43
78745;BME280;68064;53.100;8.824;2023-08-21T02:34:29;102380.66;;;15.85;67.52
78745;BME280;68064;53.100;8.824;2023-08-21T02:35:29;102391.72;;;15.83;67.15
78745;BME280;68064;53.100;8.824;2023-08-21T02:36:30;102385.59;;;15.81;67.45
78745;BME280;68064;53.100;8.824;2023-08-21T02:37:31;102384.81;;;15.82;67.65
78745;BME280;68064;53.100;8.824;2023-08-21T02:38:33;102380.53;;;15.82;67.53
78745;BME280;68064;53.100;8.824;2023-08-21T02:39:34;102386.63;;;15.84;67.62
78745;BME280;68064;53.100;8.824;2023-08-21T02:40:36;102389.13;;;15.83;67.67
78745;BME280;68064;53.100;8.824;2023-08-21T02:41:38;102392.56;;;15.82;67.60
78745;BME280;68064;53.100;8.824;2023-08-21T02:42:39;102394.09;;;15.78;67.52
78745;BME280;68064;53.100;8.824;2023-08-21T02:43:40;102398.25;;;15.75;67.29
78745;BME280;68064;53.100;8.824;2023-08-21T02:44:41;102392.13;;;15.73;67.37
78745;BME280;68064;53.100;8.824;2023-08-21T02:45:42;102389.38;;;15.70;67.22
78745;BME280;68064;53.100;8.824;2023-08-21T02:46:43;102393.53;;;15.66;67.71
78745;BME280;68064;53.100;8.824;2023-08-21T02:47:43;102386.66;;;15.67;67.90
78745;BME280;68064;53.100;8.824;2023-08-21T02:48:44;102391.16;;;15.71;67.78
78745;BME280;68064;53.100;8.824;2023-08-21T02:49:46;102390.34;;;15.72;67.71
78745;BME280;68064;53.100;8.824;2023-08-21T02:50:47;102398.84;;;15.69;67.54
78745;BME280;68064;53.100;8.824;2023-08-21T02:51:49;102394.19;;;15.62;67.72
78745;BME280;68064;53.100;8.824;2023-08-21T02:52:50;102394.09;;;15.61;67.77
78745;BME280;68064;53.100;8.824;2023-08-21T02:53:51;102398.38;;;15.60;67.68
78745;BME280;68064;53.100;8.824;2023-08-21T02:54:52;102394.09;;;15.61;67.83
78745;BME280;68064;53.100;8.824;2023-08-21T02:55:54;102400.97;;;15.60;67.73
78745;BME280;68064;53.100;8.824;2023-08-21T02:56:55;102395.88;;;15.62;67.75
78745;BME280;68064;53.100;8.824;2023-08-21T02:57:56;102390.59;;;15.59;67.78
78745;BME280;68064;53.100;8.824;2023-08-21T02:58:57;102391.31;;;15.56;67.81
78745;BME280;68064;53.100;8.824;2023-08-21T02:59:58;102397.38;;;15.57;67.80
78745;BME280;68064;53.100;8.824;2023-08-21T03:00:59;102395.75;;;15.59;67.95
78745;BME280;68064;53.100;8.824;2023-08-21T03:02:00;102393.97;;;15.58;67.94
78745;BME280;68064;53.100;8.824;2023-08-21T03:03:02;102398.94;;;15.53;67.99
78745;BME280;68064;53.100;8.824;2023-08-21T03:04:03;102397.22;;;15.54;67.81
78745;BME280;68064;53.100;8.824;2023-08-21T03:05:05;102398.84;;;15.52;67.79
78745;BME280;68064;53.100;8.824;2023-08-21T03:06:06;102396.25;;;15.52;67.99
78745;BME280;68064;53.100;8.824;2023-08-21T03:07:07;102395.03;;;15.45;68.49
78745;BME280;68064;53.100;8.824;2023-08-21T03:08:08;102405.53;;;15.48;68.33
78745;BME280;68064;53.100;8.824;2023-08-21T03:09:09;102410.84;;;15.51;69.56
78745;BME280;68064;53.100;8.824;2023-08-21T03:10:10;102406.34;;;15.47;76.05
78745;BME280;68064;53.100;8.824;2023-08-21T03:11:13;102404.56;;;15.46;70.33
78745;BME280;68064;53.100;8.824;2023-08-21T03:12:14;102407.00;;;15.43;69.41
78745;BME280;68064;53.100;8.824;2023-08-21T03:13:15;102402.63;;;15.42;68.92
78745;BME280;68064;53.100;8.824;2023-08-21T03:14:16;102408.78;;;15.44;68.85
78745;BME280;68064;53.100;8.824;2023-08-21T03:15:17;102402.78;;;15.45;68.63
78745;BME280;68064;53.100;8.824;2023-08-21T03:16:18;102400.16;;;15.44;69.88
78745;BME280;68064;53.100;8.824;2023-08-21T03:17:19;102400.16;;;15.44;68.78
78745;BME280;68064;53.100;8.824;2023-08-21T03:18:20;102400.06;;;15.42;69.03
78745;BME280;68064;53.100;8.824;2023-08-21T03:19:21;102403.38;;;15.40;68.62
78745;BME280;68064;53.100;8.824;2023-08-21T03:20:22;102405.97;;;15.40;68.76
78745;BME280;68064;53.100;8.824;2023-08-21T03:21:24;102400.81;;;15.40;68.79
78745;BME280;68064;53.100;8.824;2023-08-21T03:22:25;102399.13;;;15.40;68.71
78745;BME280;68064;53.100;8.824;2023-08-21T03:23:26;102402.34;;;15.36;68.39
78745;BME280;68064;53.100;8.824;2023-08-21T03:24:27;102398.72;;;15.32;68.39
78745;BME280;68064;53.100;8.824;2023-08-21T03:25:28;102400.50;;;15.33;68.63
78745;BME280;68064;53.100;8.824;2023-08-21T03:26:30;102405.03;;;15.38;68.68
78745;BME280;68064;53.100;8.824;2023-08-21T03:27:31;102403.28;;;15.38;68.77
78745;BME280;68064;53.100;8.824;2023-08-21T03:28:32;102404.19;;;15.38;68.65
78745;BME280;68064;53.100;8.824;2023-08-21T03:29:33;102414.50;;;15.38;68.52
78745;BME280;68064;53.100;8.824;2023-08-21T03:30:35;102403.28;;;15.38;68.62
78745;BME280;68064;53.100;8.824;2023-08-21T03:31:36;102401.59;;;15.38;68.43
78745;BME280;68064;53.100;8.824;2023-08-21T03:32:37;102404.13;;;15.37;68.51
78745;BME280;68064;53.100;8.824;2023-08-21T03:33:38;102405.66;;;15.33;68.48
78745;BME280;68064;53.100;8.824;2023-08-21T03:34:39;102400.50;;;15.33;68.50
78745;BME280;68064;53.100;8.824;2023-08-21T03:35:40;102401.31;;;15.32;68.48
78745;BME280;68064;53.100;8.824;2023-08-21T03:36:41;102402.19;;;15.33;68.75
78745;BME280;68064;53.100;8.824;2023-08-21T03:37:42;102396.97;;;15.31;68.45
78745;BME280;68064;53.100;8.824;2023-08-21T03:38:43;102398.59;;;15.29;68.58
78745;BME280;68064;53.100;8.824;2023-08-21T03:39:44;102393.41;;;15.29;68.84
78745;BME280;68064;53.100;8.824;2023-08-21T03:40:45;102390.03;;;15.30;68.87
78745;BME280;68064;53.100;8.824;2023-08-21T03:41:48;102388.34;;;15.31;68.74
78745;BME280;68064;53.100;8.824;2023-08-21T03:42:49;102396.81;;;15.28;68.64
78745;BME280;68064;53.100;8.824;2023-08-21T03:43:50;102392.47;;;15.27;68.74
78745;BME280;68064;53.100;8.824;2023-08-21T03:44:51;102394.22;;;15.28;68.82
78745;BME280;68064;53.100;8.824;2023-08-21T03:45:52;102400.13;;;15.26;68.56
78745;BME280;68064;53.100;8.824;2023-08-21T03:46:53;102394.97;;;15.26;68.79
78745;BME280;68064;53.100;8.824;2023-08-21T03:47:55;102397.50;;;15.24;68.51
78745;BME280;68064;53.100;8.824;2023-08-21T03:48:56;102396.59;;;15.24;68.74
78745;BME280;68064;53.100;8.824;2023-08-21T03:49:57;102393.94;;;15.22;68.63
78745;BME280;68064;53.100;8.824;2023-08-21T03:50:58;102399.09;;;15.22;68.65
78745;BME280;68064;53.100;8.824;2023-08-21T03:51:59;102392.19;;;15.21;69.18
78745;BME280;68064;53.100;8.824;2023-08-21T03:53:00;102391.28;;;15.21;68.82
78745;BME280;68064;53.100;8.824;2023-08-21T03:54:01;102384.44;;;15.21;68.62
78745;BME280;68064;53.100;8.824;2023-08-21T03:55:02;102393.78;;;15.19;68.91
78745;BME280;68064;53.100;8.824;2023-08-21T03:56:03;102394.66;;;15.20;68.92
78745;BME280;68064;53.100;8.824;2023-08-21T03:57:06;102387.66;;;15.17;68.71
78745;BME280;68064;53.100;8.824;2023-08-21T03:58:07;102395.31;;;15.16;68.85
78745;BME280;68064;53.100;8.824;2023-08-21T03:59:08;102403.88;;;15.15;69.04
78745;BME280;68064;53.100;8.824;2023-08-21T04:00:10;102396.06;;;15.13;69.17
78745;BME280;68064;53.100;8.824;2023-08-21T04:01:11;102401.16;;;15.12;68.94
78745;BME280;68064;53.100;8.824;2023-08-21T04:02:12;102407.13;;;15.11;68.92
78745;BME280;68064;53.100;8.824;2023-08-21T04:03:13;102401.88;;;15.09;68.85
78745;BME280;68064;53.100;8.824;2023-08-21T04:04:14;102396.72;;;15.09;68.89
78745;BME280;68064;53.100;8.824;2023-08-21T04:05:15;102395.75;;;15.07;68.84
78745;BME280;68064;53.100;8.824;2023-08-21T04:06:16;102397.31;;;15.04;68.80
78745;BME280;68064;53.100;8.824;2023-08-21T04:07:17;102392.09;;;15.02;68.80
78745;BME280;68064;53.100;8.824;2023-08-21T04:08:19;102394.50;;;14.99;68.76
78745;BME280;68064;53.100;8.824;2023-08-21T04:09:19;102405.78;;;15.01;68.83
78745;BME280;68064;53.100;8.824;2023-08-21T04:10:20;102404.09;;;15.02;69.03
78745;BME280;68064;53.100;8.824;2023-08-21T04:11:21;102397.25;;;15.02;69.07
78745;BME280;68064;53.100;8.824;2023-08-21T04:12:24;102401.41;;;15.00;68.94
78745;BME280;68064;53.100;8.824;2023-08-21T04:13:25;102393.69;;;15.00;68.94
78745;BME280;68064;53.100;8.824;2023-08-21T04:14:26;102399.66;;;14.99;69.01
78745;BME280;68064;53.100;8.824;2023-08-21T04:15:27;102399.66;;;14.99;69.08
78745;BME280;68064;53.100;8.824;2023-08-21T04:16:28;102399.66;;;14.99;69.23
78745;BME280;68064;53.100;8.824;2023-08-21T04:17:29;102400.38;;;14.97;69.02
78745;BME280;68064;53.100;8.824;2023-08-21T04:18:30;102399.44;;;14.95;69.00
78745;BME280;68064;53.100;8.824;2023-08-21T04:19:31;102395.97;;;14.94;69.07
78745;BME280;68064;53.100;8.824;2023-08-21T04:20:33;102387.28;;;14.92;69.20
78745;BME280;68064;53.100;8.824;2023-08-21T04:21:34;102398.47;;;14.93;69.19
78745;BME280;68064;53.100;8.824;2023-08-21T04:22:35;102394.03;;;14.90;69.13
78745;BME280;68064;53.100;8.824;2023-08-21T04:23:36;102394.91;;;14.91;69.13
78745;BME280;68064;53.100;8.824;2023-08-21T04:24:37;102394.13;;;14.92;69.35
78745;BME280;68064;53.100;8.824;2023-08-21T04:25:38;102409.69;;;14.93;69.46
78745;BME280;68064;53.100;8.824;2023-08-21T04:26:39;102404.34;;;14.90;69.08
78745;BME280;68064;53.100;8.824;2023-08-21T04:27:41;102406.91;;;14.90;69.25
78745;BME280;68064;53.100;8.824;2023-08-21T04:28:42;102400.91;;;14.90;69.29
78745;BME280;68064;53.100;8.824;2023-08-21T04:29:43;102405.97;;;14.88;69.19
78745;BME280;68064;53.100;8.824;2023-08-21T04:30:44;102398.16;;;14.87;69.23
78745;BME280;68064;53.100;8.824;2023-08-21T04:31:45;102399.84;;;14.86;69.22
78745;BME280;68064;53.100;8.824;2023-08-21T04:32:47;102409.19;;;14.84;69.43
78745;BME280;68064;53.100;8.824;2023-08-21T04:33:48;102409.28;;;14.86;69.30
78745;BME280;68064;53.100;8.824;2023-08-21T04:34:49;102407.50;;;14.84;69.24
78745;BME280;68064;53.100;8.824;2023-08-21T04:35:50;102414.34;;;14.84;69.27
78745;BME280;68064;53.100;8.824;2023-08-21T04:36:51;102410.91;;;14.83;69.22
78745;BME280;68064;53.100;8.824;2023-08-21T04:37:52;102409.03;;;14.81;69.24
78745;BME280;68064;53.100;8.824;2023-08-21T04:38:53;102407.28;;;14.80;69.29
78745;BME280;68064;53.100;8.824;2023-08-21T04:39:54;102406.44;;;14.81;69.05
78745;BME280;68064;53.100;8.824;2023-08-21T04:40:55;102409.03;;;14.81;69.17
78745;BME280;68064;53.100;8.824;2023-08-21T04:41:56;102405.56;;;14.80;69.13
78745;BME280;68064;53.100;8.824;2023-08-21T04:42:59;102402.94;;;14.79;69.33
78745;BME280;68064;53.100;8.824;2023-08-21T04:44:29;102401.97;;;14.77;69.28
78745;BME280;68064;53.100;8.824;2023-08-21T04:45:30;102405.41;;;14.77;69.45
78745;BME280;68064;53.100;8.824;2023-08-21T04:46:32;102403.72;;;14.78;69.35
78745;BME280;68064;53.100;8.824;2023-08-21T04:47:33;102404.47;;;14.75;69.31
78745;BME280;68064;53.100;8.824;2023-08-21T04:48:34;102403.50;;;14.73;69.30
78745;BME280;68064;53.100;8.824;2023-08-21T04:49:35;102404.31;;;14.72;69.38
78745;BME280;68064;53.100;8.824;2023-08-21T04:50:36;102405.94;;;14.70;69.36
78745;BME280;68064;53.100;8.824;2023-08-21T04:51:37;102404.22;;;14.71;69.46
78745;BME280;68064;53.100;8.824;2023-08-21T04:52:38;102403.34;;;14.70;69.30
78745;BME280;68064;53.100;8.824;2023-08-21T04:53:39;102402.47;;;14.70;69.34
78745;BME280;68064;53.100;8.824;2023-08-21T04:54:40;102405.03;;;14.70;69.51
78745;BME280;68064;53.100;8.824;2023-08-21T04:55:42;102399.00;;;14.69;69.41
78745;BME280;68064;53.100;8.824;2023-08-21T04:56:43;102406.72;;;14.69;69.49
78745;BME280;68064;53.100;8.824;2023-08-21T04:57:44;102405.03;;;14.70;69.58
78745;BME280;68064;53.100;8.824;2023-08-21T04:58:47;102410.19;;;14.70;69.57
78745;BME280;68064;53.100;8.824;2023-08-21T04:59:48;102408.50;;;14.70;69.51
78745;BME280;68064;53.100;8.824;2023-08-21T05:00:49;102406.78;;;14.71;69.76
78745;BME280;68064;53.100;8.824;2023-08-21T05:01:50;102406.00;;;14.72;69.94
78745;BME280;68064;53.100;8.824;2023-08-21T05:02:51;102406.78;;;14.71;69.87
78745;BME280;68064;53.100;8.824;2023-08-21T05:03:52;102403.41;;;14.72;69.77
78745;BME280;68064;53.100;8.824;2023-08-21T05:04:53;102406.00;;;14.72;69.76
78745;BME280;68064;53.100;8.824;2023-08-21T05:05:54;102405.03;;;14.70;69.81
78745;BME280;68064;53.100;8.824;2023-08-21T05:06:55;102400.78;;;14.70;69.98
78745;BME280;68064;53.100;8.824;2023-08-21T05:07:56;102405.03;;;14.70;69.89
78745;BME280;68064;53.100;8.824;2023-08-21T05:08:57;102405.94;;;14.70;69.87
78745;BME280;68064;53.100;8.824;2023-08-21T05:09:59;102409.38;;;14.71;69.92
78745;BME280;68064;53.100;8.824;2023-08-21T05:11:01;102406.78;;;14.71;70.04
78745;BME280;68064;53.100;8.824;2023-08-21T05:12:02;102400.78;;;14.70;69.99
78745;BME280;68064;53.100;8.824;2023-08-21T05:13:04;102406.78;;;14.71;69.95
78745;BME280;68064;53.100;8.824;2023-08-21T05:14:06;102407.69;;;14.71;69.98
78745;BME280;68064;53.100;8.824;2023-08-21T05:15:08;102408.56;;;14.72;69.94
78745;BME280;68064;53.100;8.824;2023-08-21T05:16:09;102407.78;;;14.73;70.00
78745;BME280;68064;53.100;8.824;2023-08-21T05:17:10;102418.00;;;14.71;69.90
78745;BME280;68064;53.100;8.824;2023-08-21T05:18:11;102418.97;;;14.73;70.06
78745;BME280;68064;53.100;8.824;2023-08-21T05:19:12;102411.41;;;14.76;70.17
78745;BME280;68064;53.100;8.824;2023-08-21T05:20:13;102416.47;;;14.75;70.04
78745;BME280;68064;53.100;8.824;2023-08-21T05:21:14;102415.66;;;14.76;69.75
78745;BME280;68064;53.100;8.824;2023-08-21T05:22:15;102416.41;;;14.73;69.67